Terminal Aerodrome Forecast
Issued by NWS New Orleans/Baton Rouge, LA

Home | Current Version | Previous Version | Text Only | Print | Product List | Glossary On
Versions: 1 2 3 4 5 6 7 8 9 10 11 12 13 14 15 16 17 18 19 20 21 22 23 24 25 26
000
FTUS44 KLIX 242336
TAFNEW
TAF
KNEW 242336Z 2500/2524 15015KT P6SM SCT025 BKN040
      TEMPO 2502/2505 VRB20G35KT 2SM +TSRA BKN020CB
     FM250600 15009KT P6SM SCT025 BKN090
     FM251200 15007KT P6SM BKN025 BKN060
     FM251500 15011KT P6SM VCSH BKN025
     FM251800 14011KT P6SM VCTS BKN030CB=

USA.gov is the U.S. government's official web portal to all federal, state and local government web resources and services.